Orange8 — JL6278 — position and weather

sailwx.info

Track history (hours):
 
Tides and Currents Weather Stations Pressure Air Temp Water Temp Dewpoint Dewpoint Depression Visibility Wind Speed Wind Dir Waves Ship Positions

Orange8

Last reported at 2014-Oct-25 14:33 UTC. Time now 2014-Oct-25 19:49 UTC.
Position N 34°36' E 134°55'.

Length 164 m; draft 5 m.

Type: Passenger vessel. MMSI: 431501603.

Date/timePositionNaut miles runAvg speedWind from/ knotsBaromVisibWave heightAir tempDewpointWater temp
2014-Oct-25 14:33N 34°36' E 134°55'1918.9
2014-Oct-25 13:33N 34°36' E 135°18'6 5.3
2014-Oct-25 12:22N 34°37' E 135°26'0 0.0
2014-Oct-25 11:22N 34°37' E 135°26'0 0.0
2014-Oct-25 10:22N 34°37' E 135°26'0 0.0
2014-Oct-25 09:16N 34°37' E 135°26'0 0.0
2014-Oct-25 08:28N 34°37' E 135°26'0 0.0
2014-Oct-25 07:22N 34°37' E 135°26'0 0.0
2014-Oct-25 06:28N 34°37' E 135°26'0 0.0
2014-Oct-25 05:16N 34°37' E 135°26'0 0.0
2014-Oct-25 04:10N 34°37' E 135°26'0 0.0
2014-Oct-25 03:28N 34°37' E 135°26'0 0.0
2014-Oct-25 02:28N 34°37' E 135°26'0 0.0
2014-Oct-25 01:28N 34°37' E 135°26'0 0.0
2014-Oct-25 00:28N 34°37' E 135°26'0 0.0
2014-Oct-24 23:04N 34°37' E 135°26'0 0.0
2014-Oct-24 22:10N 34°37' E 135°26'0 0.0
2014-Oct-24 21:22N 34°37' E 135°26'6 6.9
2014-Oct-24 20:33N 34°36' E 135°19'1817.8
2014-Oct-24 19:33N 34°36' E 134°58'1 0.0
2014-Oct-23 14:33N 34°37' E 134°57'1818.3
2014-Oct-23 13:33N 34°36' E 135°19'6 5.4
2014-Oct-23 12:32N 34°37' E 135°26'0 0.0
2014-Oct-23 11:32N 34°37' E 135°26'0 0.0
2014-Oct-23 10:32N 34°37' E 135°26'0 0.0
2014-Oct-23 09:32N 34°37' E 135°26'0 0.0
2014-Oct-23 08:32N 34°37' E 135°26'0 0.0
2014-Oct-23 07:26N 34°37' E 135°26'0 0.0
2014-Oct-23 06:32N 34°37' E 135°26'0 0.0
2014-Oct-23 05:26N 34°37' E 135°26'0 0.0
2014-Oct-23 04:32N 34°37' E 135°26'0 0.0
2014-Oct-23 03:32N 34°37' E 135°26'0 0.0
2014-Oct-23 02:32N 34°37' E 135°26'0 0.0
2014-Oct-23 01:32N 34°37' E 135°26'0 0.0
2014-Oct-23 00:26N 34°37' E 135°26'0 0.0
2014-Oct-22 23:32N 34°37' E 135°26'0 0.0
2014-Oct-22 22:32N 34°37' E 135°26'0 0.0
2014-Oct-22 21:32N 34°37' E 135°26'5 5.5
2014-Oct-22 20:33N 34°36' E 135°19'1817.7
2014-Oct-22 19:33N 34°37' E 134°58'11 0.4
2014-Oct-21 15:08N 34°33' E 134°46'1017.6
2014-Oct-21 14:33N 34°37' E 134°57'1717.2
2014-Oct-21 13:33N 34°37' E 135°18'6 4.4
2014-Oct-21 12:07N 34°37' E 135°26'0 0.0
2014-Oct-21 11:31N 34°37' E 135°26'0 0.0
2014-Oct-21 10:31N 34°37' E 135°26'0 0.0
2014-Oct-21 09:31N 34°37' E 135°26'0 0.0
2014-Oct-21 08:31N 34°37' E 135°26'0 0.0
2014-Oct-21 07:25N 34°37' E 135°26'0 0.0
2014-Oct-21 06:25N 34°37' E 135°26'0 0.0
2014-Oct-21 05:31N 34°37' E 135°26'0 0.0
2014-Oct-21 04:31N 34°37' E 135°26'0 0.0
2014-Oct-21 03:19N 34°37' E 135°26'0 0.0
2014-Oct-21 02:31N 34°37' E 135°26'0 0.0
2014-Oct-21 01:31N 34°37' E 135°26'0 0.0
2014-Oct-20 23:31N 34°37' E 135°26'0 0.0
2014-Oct-20 22:31N 34°37' E 135°26'0 0.0
2014-Oct-20 21:31N 34°37' E 135°26'6 6.2
2014-Oct-20 20:33N 34°36' E 135°19'1717.4
2014-Oct-20 19:33N 34°37' E 134°57'2 0.1
2014-Oct-19 14:29N 34°38' E 134°59'1617.2
2014-Oct-19 13:33N 34°37' E 135°19'6 6.0
2014-Oct-19 12:33N 34°37' E 135°26'0 0.0
2014-Oct-19 11:27N 34°37' E 135°26'0 0.0
2014-Oct-19 10:27N 34°37' E 135°26'0 0.0
2014-Oct-19 09:33N 34°37' E 135°26'0 0.0
2014-Oct-19 08:33N 34°37' E 135°26'0 0.0
2014-Oct-19 07:33N 34°37' E 135°26'0 0.0
2014-Oct-19 06:33N 34°37' E 135°26'0 0.0
2014-Oct-19 05:33N 34°37' E 135°26'0 0.0
2014-Oct-19 04:33N 34°37' E 135°26'0 0.0
2014-Oct-19 03:21N 34°37' E 135°26'0 0.0
2014-Oct-19 02:27N 34°37' E 135°26'0 0.0
2014-Oct-19 01:33N 34°37' E 135°26'0 0.0
2014-Oct-19 00:33N 34°37' E 135°26'0 0.0
2014-Oct-18 23:33N 34°37' E 135°26'0 0.0
2014-Oct-18 22:21N 34°37' E 135°26'0 0.0
2014-Oct-18 21:33N 34°37' E 135°26'7 6.7
2014-Oct-18 20:33N 34°36' E 135°18'1818.0
2014-Oct-18 19:33N 34°36' E 134°56'9 0.3
2014-Oct-17 15:11N 34°33' E 134°46'1117.7
2014-Oct-17 14:33N 34°37' E 134°58'1717.1
2014-Oct-17 13:33N 34°36' E 135°19'6 5.4
2014-Oct-17 12:29N 34°37' E 135°26'0 0.0
2014-Oct-17 11:29N 34°37' E 135°26'0 0.0
2014-Oct-17 10:29N 34°37' E 135°26'0 0.0
2014-Oct-17 09:05N 34°37' E 135°26'0 0.0
2014-Oct-17 08:23N 34°37' E 135°26'0 0.0
2014-Oct-17 07:23N 34°37' E 135°26'0 0.0
2014-Oct-17 06:29N 34°37' E 135°26'0 0.0
2014-Oct-17 05:29N 34°37' E 135°26'0 0.0
2014-Oct-17 04:29N 34°37' E 135°26'0 0.0
2014-Oct-17 03:17N 34°37' E 135°26'0 0.0
2014-Oct-17 02:29N 34°37' E 135°26'0 0.0
2014-Oct-17 01:11N 34°37' E 135°26'0 0.0
2014-Oct-17 00:23N 34°37' E 135°26'0 0.0
2014-Oct-16 23:29N 34°37' E 135°26'0 0.0
2014-Oct-16 22:29N 34°37' E 135°26'0 0.0
2014-Oct-16 21:29N 34°37' E 135°26'6 6.5
2014-Oct-16 20:33N 34°36' E 135°19'1918.5
2014-Oct-16 19:33N 34°36' E 134°56'12 0.4
2014-Oct-15 15:15N 34°32' E 134°43'1318.4
2014-Oct-15 14:34N 34°37' E 134°57'  
Track history (hours):
 
Tides and Currents Weather Stations Pressure Air Temp Water Temp Dewpoint Dewpoint Depression Visibility Wind Speed Wind Dir Waves Ship Positions

Orange8

Last reported at 2014-Oct-25 14:33 UTC. Time now 2014-Oct-25 19:49 UTC.
Position N 34°36' E 134°55'.

Length 164 m; draft 5 m.

Type: Passenger vessel. MMSI: 431501603.

Date/timePositionNaut miles runAvg speedWind from/ knotsBaromVisibWave heightAir tempDewpointWater temp
2014-Oct-25 14:33N 34°36' E 134°55'1918.9
2014-Oct-25 13:33N 34°36' E 135°18'6 5.3
2014-Oct-25 12:22N 34°37' E 135°26'0 0.0
2014-Oct-25 11:22N 34°37' E 135°26'0 0.0
2014-Oct-25 10:22N 34°37' E 135°26'0 0.0
2014-Oct-25 09:16N 34°37' E 135°26'0 0.0
2014-Oct-25 08:28N 34°37' E 135°26'0 0.0
2014-Oct-25 07:22N 34°37' E 135°26'0 0.0
2014-Oct-25 06:28N 34°37' E 135°26'0 0.0
2014-Oct-25 05:16N 34°37' E 135°26'0 0.0
2014-Oct-25 04:10N 34°37' E 135°26'0 0.0
2014-Oct-25 03:28N 34°37' E 135°26'0 0.0
2014-Oct-25 02:28N 34°37' E 135°26'0 0.0
2014-Oct-25 01:28N 34°37' E 135°26'0 0.0
2014-Oct-25 00:28N 34°37' E 135°26'0 0.0
2014-Oct-24 23:04N 34°37' E 135°26'0 0.0
2014-Oct-24 22:10N 34°37' E 135°26'0 0.0
2014-Oct-24 21:22N 34°37' E 135°26'6 6.9
2014-Oct-24 20:33N 34°36' E 135°19'1817.8
2014-Oct-24 19:33N 34°36' E 134°58'1 0.0
2014-Oct-23 14:33N 34°37' E 134°57'1818.3
2014-Oct-23 13:33N 34°36' E 135°19'6 5.4
2014-Oct-23 12:32N 34°37' E 135°26'0 0.0
2014-Oct-23 11:32N 34°37' E 135°26'0 0.0
2014-Oct-23 10:32N 34°37' E 135°26'0 0.0
2014-Oct-23 09:32N 34°37' E 135°26'0 0.0
2014-Oct-23 08:32N 34°37' E 135°26'0 0.0
2014-Oct-23 07:26N 34°37' E 135°26'0 0.0
2014-Oct-23 06:32N 34°37' E 135°26'0 0.0
2014-Oct-23 05:26N 34°37' E 135°26'0 0.0
2014-Oct-23 04:32N 34°37' E 135°26'0 0.0
2014-Oct-23 03:32N 34°37' E 135°26'0 0.0
2014-Oct-23 02:32N 34°37' E 135°26'0 0.0
2014-Oct-23 01:32N 34°37' E 135°26'0 0.0
2014-Oct-23 00:26N 34°37' E 135°26'0 0.0
2014-Oct-22 23:32N 34°37' E 135°26'0 0.0
2014-Oct-22 22:32N 34°37' E 135°26'0 0.0
2014-Oct-22 21:32N 34°37' E 135°26'5 5.5
2014-Oct-22 20:33N 34°36' E 135°19'1817.7
2014-Oct-22 19:33N 34°37' E 134°58'11 0.4
2014-Oct-21 15:08N 34°33' E 134°46'1017.6
2014-Oct-21 14:33N 34°37' E 134°57'1717.2
2014-Oct-21 13:33N 34°37' E 135°18'6 4.4
2014-Oct-21 12:07N 34°37' E 135°26'0 0.0
2014-Oct-21 11:31N 34°37' E 135°26'0 0.0
2014-Oct-21 10:31N 34°37' E 135°26'0 0.0
2014-Oct-21 09:31N 34°37' E 135°26'0 0.0
2014-Oct-21 08:31N 34°37' E 135°26'0 0.0
2014-Oct-21 07:25N 34°37' E 135°26'0 0.0
2014-Oct-21 06:25N 34°37' E 135°26'0 0.0
2014-Oct-21 05:31N 34°37' E 135°26'0 0.0
2014-Oct-21 04:31N 34°37' E 135°26'0 0.0
2014-Oct-21 03:19N 34°37' E 135°26'0 0.0
2014-Oct-21 02:31N 34°37' E 135°26'0 0.0
2014-Oct-21 01:31N 34°37' E 135°26'0 0.0
2014-Oct-20 23:31N 34°37' E 135°26'0 0.0
2014-Oct-20 22:31N 34°37' E 135°26'0 0.0
2014-Oct-20 21:31N 34°37' E 135°26'6 6.2
2014-Oct-20 20:33N 34°36' E 135°19'1717.4
2014-Oct-20 19:33N 34°37' E 134°57'2 0.1
2014-Oct-19 14:29N 34°38' E 134°59'1617.2
2014-Oct-19 13:33N 34°37' E 135°19'6 6.0
2014-Oct-19 12:33N 34°37' E 135°26'0 0.0
2014-Oct-19 11:27N 34°37' E 135°26'0 0.0
2014-Oct-19 10:27N 34°37' E 135°26'0 0.0
2014-Oct-19 09:33N 34°37' E 135°26'0 0.0
2014-Oct-19 08:33N 34°37' E 135°26'0 0.0
2014-Oct-19 07:33N 34°37' E 135°26'0 0.0
2014-Oct-19 06:33N 34°37' E 135°26'0 0.0
2014-Oct-19 05:33N 34°37' E 135°26'0 0.0
2014-Oct-19 04:33N 34°37' E 135°26'0 0.0
2014-Oct-19 03:21N 34°37' E 135°26'0 0.0
2014-Oct-19 02:27N 34°37' E 135°26'0 0.0
2014-Oct-19 01:33N 34°37' E 135°26'0 0.0
2014-Oct-19 00:33N 34°37' E 135°26'0 0.0
2014-Oct-18 23:33N 34°37' E 135°26'0 0.0
2014-Oct-18 22:21N 34°37' E 135°26'0 0.0
2014-Oct-18 21:33N 34°37' E 135°26'7 6.7
2014-Oct-18 20:33N 34°36' E 135°18'1818.0
2014-Oct-18 19:33N 34°36' E 134°56'9 0.3
2014-Oct-17 15:11N 34°33' E 134°46'1117.7
2014-Oct-17 14:33N 34°37' E 134°58'1717.1
2014-Oct-17 13:33N 34°36' E 135°19'6 5.4
2014-Oct-17 12:29N 34°37' E 135°26'0 0.0
2014-Oct-17 11:29N 34°37' E 135°26'0 0.0
2014-Oct-17 10:29N 34°37' E 135°26'0 0.0
2014-Oct-17 09:05N 34°37' E 135°26'0 0.0
2014-Oct-17 08:23N 34°37' E 135°26'0 0.0
2014-Oct-17 07:23N 34°37' E 135°26'0 0.0
2014-Oct-17 06:29N 34°37' E 135°26'0 0.0
2014-Oct-17 05:29N 34°37' E 135°26'0 0.0
2014-Oct-17 04:29N 34°37' E 135°26'0 0.0
2014-Oct-17 03:17N 34°37' E 135°26'0 0.0
2014-Oct-17 02:29N 34°37' E 135°26'0 0.0
2014-Oct-17 01:11N 34°37' E 135°26'0 0.0
2014-Oct-17 00:23N 34°37' E 135°26'0 0.0
2014-Oct-16 23:29N 34°37' E 135°26'0 0.0
2014-Oct-16 22:29N 34°37' E 135°26'0 0.0
2014-Oct-16 21:29N 34°37' E 135°26'6 6.5
2014-Oct-16 20:33N 34°36' E 135°19'1918.5
2014-Oct-16 19:33N 34°36' E 134°56'12 0.4
2014-Oct-15 15:15N 34°32' E 134°43'1318.4
2014-Oct-15 14:34N 34°37' E 134°57'  

Dump ship's entire track history